• Join FlightAware (Why Join?)
  • Login
  • US Flag 
09:52PM EDT


 

Airport Tracker/Info


-or-


 

Live Flight TrackerFlight Track Log ✈ CHH7028 ✈ 08-Jul-2013 ✈ ZGSZ / SZX - ZJHK / HAK

Flight Track Log - Related Links

Times and Time Zones

All times are in EDT time to prevent confusion due to time zone crossing. See the CHH7028 flight status page for this flight to view local times or setup timezone preferences in your user account.

Time Position Orientation Groundspeed Altitude Reporting Facility
EDT Latitude Longitude Course Direction KTS MPH feet Rate Location/Type
02:12PM 22.5325 113.6758 230° Southwest  Level Estimated
02:13PM 22.4255 113.5393 230° Southwest  Level Estimated
02:14PM 22.3183 113.4031 230° Southwest  Level Estimated
02:15PM 22.2110 113.2671 230° Southwest  Level Estimated
02:16PM 22.1036 113.1313 230° Southwest  Level Estimated
02:17PM 21.9961 112.9957 229° Southwest  Level Estimated
02:18PM 21.8885 112.8603 229° Southwest  Level Estimated
02:19PM 21.7808 112.7251 229° Southwest  Level Estimated
02:20PM 21.6729 112.5901 229° Southwest  Level Estimated
02:21PM 21.5650 112.4553 229° Southwest  Level Estimated
02:22PM 21.4569 112.3207 229° Southwest  Level Estimated
02:23PM 21.3487 112.1863 229° Southwest  Level Estimated
02:24PM 21.2405 112.0521 229° Southwest  Level Estimated
02:25PM 21.1321 111.9181 229° Southwest  Level Estimated
02:26PM 21.0236 111.7843 229° Southwest  Level Estimated
02:27PM 20.9150 111.6507 229° Southwest  Level Estimated
02:28PM 20.8063 111.5173 229° Southwest  Level Estimated
02:29PM 20.6975 111.3841 229° Southwest  Level Estimated
02:30PM 20.5886 111.2511 229° Southwest  Level Estimated
02:31PM 20.4796 111.1182 229° Southwest  Level Estimated
02:32PM 20.3705 110.9856 229° Southwest  Level Estimated
02:33PM 20.2613 110.8531 229° Southwest  Level Estimated
02:34PM 20.1520 110.7208 229° Southwest  Level Estimated
02:35PM 20.0426 110.5888 229° Southwest  Level Estimated
02:36PM 19.9349 110.4590 229° Southwest  Level Estimated
02:37PM 19.9349 110.4590 167° South  Level Estimated
02:38PM 19.9349 110.4590 167° South  Level Estimated
02:39PM 19.9349 110.4590 167° South  Level Estimated
02:40PM 19.9349 110.4590 167° South  Level Estimated
02:41PM 19.9349 110.4590 167° South  Level Estimated
02:42PM 19.9349 110.4590 167° South  Level Estimated
02:43PM 19.9349 110.4590 167° South  Level Estimated
02:44PM 19.9349 110.4590 167° South  Level Estimated
02:45PM 19.9349 110.4590 167° South  Level Estimated
02:46PM 19.9349 110.4590 167° South  Level Estimated
02:47PM 19.9349 110.4590 167° South  Level Estimated
02:48PM 19.9349 110.4590 167° South  Level Estimated
02:49PM 19.9349 110.4590 167° South  Level Estimated
02:50PM 19.9349 110.4590 167° South  Level Estimated
02:51PM 19.9349 110.4590 167° South  Level Estimated
02:52PM 19.9349 110.4590 167° South  Level Estimated